sensor_id;sensor_type;location;lat;lon;timestamp;P1;durP1;ratioP1;P2;durP2;ratioP2
39022;SDS011;25908;51.984;5.928;2022-07-29T00:00:11;2.72;;;1.05;;
39022;SDS011;25908;51.984;5.928;2022-07-29T00:02:37;3.28;;;0.90;;
39022;SDS011;25908;51.984;5.928;2022-07-29T00:05:03;5.13;;;1.30;;
39022;SDS011;25908;51.984;5.928;2022-07-29T00:07:29;4.57;;;1.10;;
39022;SDS011;25908;51.984;5.928;2022-07-29T00:09:55;2.47;;;1.10;;
39022;SDS011;25908;51.984;5.928;2022-07-29T00:12:23;2.53;;;0.90;;
39022;SDS011;25908;51.984;5.928;2022-07-29T00:14:49;2.65;;;1.30;;
39022;SDS011;25908;51.984;5.928;2022-07-29T00:17:15;5.65;;;0.90;;
39022;SDS011;25908;51.984;5.928;2022-07-29T00:19:40;2.20;;;0.90;;
39022;SDS011;25908;51.984;5.928;2022-07-29T00:22:06;2.53;;;1.17;;
39022;SDS011;25908;51.984;5.928;2022-07-29T00:24:32;2.65;;;1.00;;
39022;SDS011;25908;51.984;5.928;2022-07-29T00:26:57;3.20;;;1.13;;
39022;SDS011;25908;51.984;5.928;2022-07-29T00:29:23;4.35;;;1.73;;
39022;SDS011;25908;51.984;5.928;2022-07-29T00:31:49;2.97;;;0.90;;
39022;SDS011;25908;51.984;5.928;2022-07-29T00:34:14;7.72;;;1.50;;
39022;SDS011;25908;51.984;5.928;2022-07-29T00:36:59;4.90;;;1.17;;
39022;SDS011;25908;51.984;5.928;2022-07-29T00:39:24;3.78;;;1.40;;
39022;SDS011;25908;51.984;5.928;2022-07-29T00:41:50;3.35;;;1.13;;
39022;SDS011;25908;51.984;5.928;2022-07-29T00:44:16;5.18;;;1.52;;
39022;SDS011;25908;51.984;5.928;2022-07-29T00:46:41;3.83;;;1.40;;
39022;SDS011;25908;51.984;5.928;2022-07-29T00:49:07;4.70;;;1.63;;
39022;SDS011;25908;51.984;5.928;2022-07-29T00:51:34;4.70;;;2.35;;
39022;SDS011;25908;51.984;5.928;2022-07-29T00:54:01;5.10;;;1.40;;
39022;SDS011;25908;51.984;5.928;2022-07-29T00:56:29;2.45;;;1.20;;
39022;SDS011;25908;51.984;5.928;2022-07-29T00:58:56;3.40;;;1.42;;
39022;SDS011;25908;51.984;5.928;2022-07-29T01:01:22;4.07;;;1.20;;
39022;SDS011;25908;51.984;5.928;2022-07-29T01:03:47;4.00;;;1.70;;
39022;SDS011;25908;51.984;5.928;2022-07-29T01:06:13;3.20;;;1.52;;
39022;SDS011;25908;51.984;5.928;2022-07-29T01:08:41;4.20;;;1.38;;
39022;SDS011;25908;51.984;5.928;2022-07-29T01:11:07;5.50;;;1.52;;
39022;SDS011;25908;51.984;5.928;2022-07-29T01:13:32;3.38;;;1.80;;
39022;SDS011;25908;51.984;5.928;2022-07-29T01:16:01;5.53;;;1.45;;
39022;SDS011;25908;51.984;5.928;2022-07-29T01:18:34;3.70;;;1.70;;
39022;SDS011;25908;51.984;5.928;2022-07-29T01:21:07;7.03;;;1.48;;
39022;SDS011;25908;51.984;5.928;2022-07-29T01:24:17;2.20;;;1.50;;
39022;SDS011;25908;51.984;5.928;2022-07-29T01:29:57;2.47;;;1.38;;
39022;SDS011;25908;51.984;5.928;2022-07-29T01:32:26;5.85;;;2.15;;
39022;SDS011;25908;51.984;5.928;2022-07-29T01:37:51;3.53;;;1.58;;
39022;SDS011;25908;51.984;5.928;2022-07-29T01:43:14;2.65;;;1.30;;
39022;SDS011;25908;51.984;5.928;2022-07-29T01:45:45;2.53;;;1.45;;
39022;SDS011;25908;51.984;5.928;2022-07-29T01:48:20;5.10;;;1.33;;
39022;SDS011;25908;51.984;5.928;2022-07-29T01:50:53;5.13;;;1.80;;
39022;SDS011;25908;51.984;5.928;2022-07-29T01:53:44;5.07;;;1.60;;
39022;SDS011;25908;51.984;5.928;2022-07-29T01:56:21;2.65;;;1.33;;
39022;SDS011;25908;51.984;5.928;2022-07-29T01:58:49;5.43;;;1.40;;
39022;SDS011;25908;51.984;5.928;2022-07-29T02:01:17;4.35;;;1.27;;
39022;SDS011;25908;51.984;5.928;2022-07-29T02:03:45;4.93;;;1.52;;
39022;SDS011;25908;51.984;5.928;2022-07-29T02:06:12;4.28;;;1.30;;
39022;SDS011;25908;51.984;5.928;2022-07-29T02:08:43;3.72;;;1.55;;
39022;SDS011;25908;51.984;5.928;2022-07-29T02:11:11;3.17;;;1.40;;
39022;SDS011;25908;51.984;5.928;2022-07-29T02:13:37;4.22;;;1.60;;
39022;SDS011;25908;51.984;5.928;2022-07-29T02:16:04;3.53;;;1.40;;
39022;SDS011;25908;51.984;5.928;2022-07-29T02:18:32;4.13;;;1.30;;
39022;SDS011;25908;51.984;5.928;2022-07-29T02:21:01;5.97;;;1.50;;
39022;SDS011;25908;51.984;5.928;2022-07-29T02:23:28;5.70;;;1.52;;
39022;SDS011;25908;51.984;5.928;2022-07-29T02:25:57;4.00;;;1.55;;
39022;SDS011;25908;51.984;5.928;2022-07-29T02:28:25;4.60;;;1.50;;
39022;SDS011;25908;51.984;5.928;2022-07-29T02:30:53;5.90;;;1.60;;
39022;SDS011;25908;51.984;5.928;2022-07-29T02:33:22;4.60;;;1.50;;
39022;SDS011;25908;51.984;5.928;2022-07-29T02:35:49;2.88;;;1.40;;
39022;SDS011;25908;51.984;5.928;2022-07-29T02:38:15;2.78;;;1.70;;
39022;SDS011;25908;51.984;5.928;2022-07-29T02:41:04;4.13;;;1.50;;
39022;SDS011;25908;51.984;5.928;2022-07-29T02:43:33;4.13;;;1.38;;
39022;SDS011;25908;51.984;5.928;2022-07-29T02:46:00;3.42;;;1.27;;
39022;SDS011;25908;51.984;5.928;2022-07-29T02:48:36;4.90;;;2.00;;
39022;SDS011;25908;51.984;5.928;2022-07-29T02:51:08;4.70;;;1.63;;
39022;SDS011;25908;51.984;5.928;2022-07-29T02:53:39;4.20;;;1.58;;
39022;SDS011;25908;51.984;5.928;2022-07-29T02:56:13;4.40;;;1.40;;
39022;SDS011;25908;51.984;5.928;2022-07-29T02:58:41;3.03;;;1.75;;
39022;SDS011;25908;51.984;5.928;2022-07-29T03:01:14;7.30;;;1.83;;
39022;SDS011;25908;51.984;5.928;2022-07-29T03:03:44;2.67;;;1.60;;
39022;SDS011;25908;51.984;5.928;2022-07-29T03:06:11;3.20;;;1.58;;
39022;SDS011;25908;51.984;5.928;2022-07-29T03:08:39;8.32;;;1.67;;
39022;SDS011;25908;51.984;5.928;2022-07-29T03:11:07;3.88;;;1.70;;
39022;SDS011;25908;51.984;5.928;2022-07-29T03:13:34;5.78;;;1.83;;
39022;SDS011;25908;51.984;5.928;2022-07-29T03:16:00;3.17;;;1.77;;
39022;SDS011;25908;51.984;5.928;2022-07-29T03:18:27;4.75;;;1.80;;
39022;SDS011;25908;51.984;5.928;2022-07-29T03:20:53;5.25;;;1.85;;
39022;SDS011;25908;51.984;5.928;2022-07-29T03:23:20;4.90;;;1.90;;
39022;SDS011;25908;51.984;5.928;2022-07-29T03:25:47;3.50;;;1.70;;
39022;SDS011;25908;51.984;5.928;2022-07-29T03:28:14;4.90;;;2.00;;
39022;SDS011;25908;51.984;5.928;2022-07-29T03:30:39;5.43;;;2.10;;
39022;SDS011;25908;51.984;5.928;2022-07-29T03:33:05;4.47;;;2.20;;
39022;SDS011;25908;51.984;5.928;2022-07-29T03:35:31;4.85;;;2.80;;
39022;SDS011;25908;51.984;5.928;2022-07-29T03:37:57;5.00;;;2.83;;
39022;SDS011;25908;51.984;5.928;2022-07-29T03:40:25;4.38;;;2.20;;
39022;SDS011;25908;51.984;5.928;2022-07-29T03:42:55;6.28;;;2.05;;
39022;SDS011;25908;51.984;5.928;2022-07-29T03:45:21;5.60;;;2.25;;
39022;SDS011;25908;51.984;5.928;2022-07-29T03:47:52;7.60;;;2.58;;
39022;SDS011;25908;51.984;5.928;2022-07-29T03:50:21;4.72;;;1.95;;
39022;SDS011;25908;51.984;5.928;2022-07-29T03:52:47;4.32;;;2.45;;
39022;SDS011;25908;51.984;5.928;2022-07-29T03:55:14;3.63;;;2.08;;
39022;SDS011;25908;51.984;5.928;2022-07-29T03:57:40;3.38;;;2.22;;
39022;SDS011;25908;51.984;5.928;2022-07-29T04:00:08;3.90;;;2.30;;
39022;SDS011;25908;51.984;5.928;2022-07-29T04:02:34;8.60;;;2.97;;
39022;SDS011;25908;51.984;5.928;2022-07-29T04:05:01;3.38;;;2.05;;
39022;SDS011;25908;51.984;5.928;2022-07-29T04:07:27;5.65;;;2.40;;
39022;SDS011;25908;51.984;5.928;2022-07-29T04:09:53;5.30;;;2.65;;
39022;SDS011;25908;51.984;5.928;2022-07-29T04:12:19;3.78;;;2.33;;
39022;SDS011;25908;51.984;5.928;2022-07-29T04:14:45;5.38;;;2.65;;
39022;SDS011;25908;51.984;5.928;2022-07-29T04:17:11;4.75;;;2.70;;
39022;SDS011;25908;51.984;5.928;2022-07-29T04:19:37;9.02;;;2.85;;
39022;SDS011;25908;51.984;5.928;2022-07-29T04:22:02;4.55;;;2.65;;
39022;SDS011;25908;51.984;5.928;2022-07-29T04:24:28;7.22;;;2.42;;
39022;SDS011;25908;51.984;5.928;2022-07-29T04:26:53;6.32;;;2.75;;
39022;SDS011;25908;51.984;5.928;2022-07-29T04:29:19;5.03;;;2.63;;
39022;SDS011;25908;51.984;5.928;2022-07-29T04:31:44;5.47;;;3.08;;
39022;SDS011;25908;51.984;5.928;2022-07-29T04:34:10;7.95;;;2.72;;
39022;SDS011;25908;51.984;5.928;2022-07-29T04:36:36;5.15;;;2.78;;
39022;SDS011;25908;51.984;5.928;2022-07-29T04:39:02;5.68;;;2.90;;
39022;SDS011;25908;51.984;5.928;2022-07-29T04:41:28;6.43;;;2.83;;
39022;SDS011;25908;51.984;5.928;2022-07-29T04:43:54;10.30;;;3.70;;
39022;SDS011;25908;51.984;5.928;2022-07-29T04:46:19;6.70;;;2.83;;
39022;SDS011;25908;51.984;5.928;2022-07-29T04:48:46;4.75;;;2.78;;
39022;SDS011;25908;51.984;5.928;2022-07-29T04:51:12;3.58;;;2.70;;
39022;SDS011;25908;51.984;5.928;2022-07-29T04:53:38;6.03;;;3.17;;
39022;SDS011;25908;51.984;5.928;2022-07-29T04:56:04;6.50;;;2.55;;
39022;SDS011;25908;51.984;5.928;2022-07-29T04:58:30;6.30;;;2.78;;
39022;SDS011;25908;51.984;5.928;2022-07-29T05:00:56;5.00;;;2.63;;
39022;SDS011;25908;51.984;5.928;2022-07-29T05:03:21;4.18;;;2.38;;
39022;SDS011;25908;51.984;5.928;2022-07-29T05:05:47;5.75;;;2.85;;
39022;SDS011;25908;51.984;5.928;2022-07-29T05:08:13;6.10;;;2.85;;
39022;SDS011;25908;51.984;5.928;2022-07-29T05:10:38;5.70;;;2.58;;
39022;SDS011;25908;51.984;5.928;2022-07-29T05:13:05;5.32;;;2.72;;
39022;SDS011;25908;51.984;5.928;2022-07-29T05:15:31;7.22;;;3.17;;
39022;SDS011;25908;51.984;5.928;2022-07-29T05:17:58;6.20;;;2.70;;
39022;SDS011;25908;51.984;5.928;2022-07-29T05:20:23;4.47;;;2.33;;
39022;SDS011;25908;51.984;5.928;2022-07-29T05:22:53;6.78;;;3.28;;
39022;SDS011;25908;51.984;5.928;2022-07-29T05:25:19;3.90;;;2.28;;
39022;SDS011;25908;51.984;5.928;2022-07-29T05:27:45;4.38;;;2.88;;
39022;SDS011;25908;51.984;5.928;2022-07-29T05:30:10;5.05;;;2.70;;
39022;SDS011;25908;51.984;5.928;2022-07-29T05:32:36;5.57;;;2.72;;
39022;SDS011;25908;51.984;5.928;2022-07-29T05:35:02;5.13;;;2.90;;
39022;SDS011;25908;51.984;5.928;2022-07-29T05:37:27;5.82;;;2.35;;
39022;SDS011;25908;51.984;5.928;2022-07-29T05:39:53;5.85;;;2.55;;
39022;SDS011;25908;51.984;5.928;2022-07-29T05:42:18;8.57;;;2.97;;
39022;SDS011;25908;51.984;5.928;2022-07-29T05:44:44;6.40;;;2.60;;
39022;SDS011;25908;51.984;5.928;2022-07-29T05:47:09;4.72;;;2.92;;
39022;SDS011;25908;51.984;5.928;2022-07-29T05:49:35;7.00;;;2.75;;
39022;SDS011;25908;51.984;5.928;2022-07-29T05:52:01;5.45;;;3.00;;
39022;SDS011;25908;51.984;5.928;2022-07-29T05:54:26;7.13;;;3.00;;
39022;SDS011;25908;51.984;5.928;2022-07-29T05:56:52;6.72;;;3.58;;
39022;SDS011;25908;51.984;5.928;2022-07-29T05:59:17;4.65;;;2.75;;
39022;SDS011;25908;51.984;5.928;2022-07-29T06:01:43;5.63;;;3.03;;
39022;SDS011;25908;51.984;5.928;2022-07-29T06:04:08;7.25;;;3.42;;
39022;SDS011;25908;51.984;5.928;2022-07-29T06:06:34;5.95;;;2.97;;
39022;SDS011;25908;51.984;5.928;2022-07-29T06:09:00;4.70;;;2.83;;
39022;SDS011;25908;51.984;5.928;2022-07-29T06:11:26;6.97;;;2.90;;
39022;SDS011;25908;51.984;5.928;2022-07-29T06:13:52;6.20;;;3.15;;
39022;SDS011;25908;51.984;5.928;2022-07-29T06:16:18;5.65;;;3.13;;
39022;SDS011;25908;51.984;5.928;2022-07-29T06:18:43;6.15;;;2.95;;
39022;SDS011;25908;51.984;5.928;2022-07-29T06:21:09;5.30;;;2.72;;
39022;SDS011;25908;51.984;5.928;2022-07-29T06:23:38;5.70;;;2.70;;
39022;SDS011;25908;51.984;5.928;2022-07-29T06:26:04;7.25;;;2.90;;
39022;SDS011;25908;51.984;5.928;2022-07-29T06:28:31;6.45;;;2.47;;
39022;SDS011;25908;51.984;5.928;2022-07-29T06:30:57;5.63;;;2.83;;
39022;SDS011;25908;51.984;5.928;2022-07-29T06:33:23;4.82;;;2.70;;
39022;SDS011;25908;51.984;5.928;2022-07-29T06:35:49;5.82;;;2.50;;
39022;SDS011;25908;51.984;5.928;2022-07-29T06:38:15;4.68;;;2.58;;
39022;SDS011;25908;51.984;5.928;2022-07-29T06:40:43;5.75;;;2.67;;
39022;SDS011;25908;51.984;5.928;2022-07-29T06:43:28;4.38;;;2.33;;
39022;SDS011;25908;51.984;5.928;2022-07-29T06:46:15;4.22;;;2.28;;
39022;SDS011;25908;51.984;5.928;2022-07-29T06:48:44;4.70;;;2.42;;
39022;SDS011;25908;51.984;5.928;2022-07-29T06:51:11;4.30;;;2.13;;
39022;SDS011;25908;51.984;5.928;2022-07-29T06:53:36;4.07;;;2.00;;
39022;SDS011;25908;51.984;5.928;2022-07-29T06:56:03;4.65;;;2.50;;
39022;SDS011;25908;51.984;5.928;2022-07-29T06:58:31;7.50;;;2.72;;
39022;SDS011;25908;51.984;5.928;2022-07-29T07:00:57;3.13;;;2.10;;
39022;SDS011;25908;51.984;5.928;2022-07-29T07:03:24;6.00;;;1.92;;
39022;SDS011;25908;51.984;5.928;2022-07-29T07:05:50;4.85;;;2.00;;
39022;SDS011;25908;51.984;5.928;2022-07-29T07:08:17;3.80;;;2.05;;
39022;SDS011;25908;51.984;5.928;2022-07-29T07:10:44;4.30;;;2.10;;
39022;SDS011;25908;51.984;5.928;2022-07-29T07:13:09;4.93;;;2.40;;
39022;SDS011;25908;51.984;5.928;2022-07-29T07:15:36;6.32;;;2.25;;
39022;SDS011;25908;51.984;5.928;2022-07-29T07:18:02;5.28;;;2.20;;
39022;SDS011;25908;51.984;5.928;2022-07-29T07:20:28;4.68;;;2.50;;
39022;SDS011;25908;51.984;5.928;2022-07-29T07:22:54;5.57;;;2.00;;
39022;SDS011;25908;51.984;5.928;2022-07-29T07:25:20;5.97;;;2.30;;
39022;SDS011;25908;51.984;5.928;2022-07-29T07:27:45;4.00;;;2.40;;
39022;SDS011;25908;51.984;5.928;2022-07-29T07:30:11;3.88;;;2.30;;
39022;SDS011;25908;51.984;5.928;2022-07-29T07:32:37;4.30;;;2.38;;
39022;SDS011;25908;51.984;5.928;2022-07-29T07:35:03;4.32;;;2.25;;
39022;SDS011;25908;51.984;5.928;2022-07-29T07:37:31;4.35;;;2.40;;
39022;SDS011;25908;51.984;5.928;2022-07-29T07:39:57;4.63;;;2.00;;
39022;SDS011;25908;51.984;5.928;2022-07-29T07:42:22;5.38;;;2.33;;
39022;SDS011;25908;51.984;5.928;2022-07-29T07:44:48;5.22;;;2.50;;
39022;SDS011;25908;51.984;5.928;2022-07-29T07:47:15;5.30;;;2.22;;
39022;SDS011;25908;51.984;5.928;2022-07-29T07:49:44;7.40;;;2.53;;
39022;SDS011;25908;51.984;5.928;2022-07-29T07:52:14;5.80;;;2.35;;
39022;SDS011;25908;51.984;5.928;2022-07-29T07:54:41;4.95;;;2.35;;
39022;SDS011;25908;51.984;5.928;2022-07-29T07:57:07;4.95;;;2.42;;
39022;SDS011;25908;51.984;5.928;2022-07-29T07:59:33;6.53;;;2.22;;
39022;SDS011;25908;51.984;5.928;2022-07-29T08:01:58;5.57;;;2.40;;
39022;SDS011;25908;51.984;5.928;2022-07-29T08:04:25;5.47;;;2.40;;
39022;SDS011;25908;51.984;5.928;2022-07-29T08:06:51;5.70;;;2.35;;
39022;SDS011;25908;51.984;5.928;2022-07-29T08:09:19;6.53;;;2.08;;
39022;SDS011;25908;51.984;5.928;2022-07-29T08:11:45;4.20;;;2.10;;
39022;SDS011;25908;51.984;5.928;2022-07-29T08:14:10;4.35;;;2.30;;
39022;SDS011;25908;51.984;5.928;2022-07-29T08:16:36;7.45;;;2.70;;
39022;SDS011;25908;51.984;5.928;2022-07-29T08:19:01;6.38;;;2.40;;
39022;SDS011;25908;51.984;5.928;2022-07-29T08:21:27;3.55;;;1.95;;
39022;SDS011;25908;51.984;5.928;2022-07-29T08:23:52;4.22;;;2.10;;
39022;SDS011;25908;51.984;5.928;2022-07-29T08:26:38;5.70;;;2.22;;
39022;SDS011;25908;51.984;5.928;2022-07-29T08:29:04;4.50;;;2.35;;
39022;SDS011;25908;51.984;5.928;2022-07-29T08:31:29;5.38;;;2.28;;
39022;SDS011;25908;51.984;5.928;2022-07-29T08:33:55;6.10;;;2.53;;
39022;SDS011;25908;51.984;5.928;2022-07-29T08:36:21;5.88;;;2.25;;
39022;SDS011;25908;51.984;5.928;2022-07-29T08:38:46;6.40;;;2.30;;
39022;SDS011;25908;51.984;5.928;2022-07-29T08:41:14;5.90;;;2.80;;
39022;SDS011;25908;51.984;5.928;2022-07-29T08:43:40;4.95;;;2.22;;
39022;SDS011;25908;51.984;5.928;2022-07-29T08:46:05;3.72;;;2.30;;
39022;SDS011;25908;51.984;5.928;2022-07-29T08:48:31;4.13;;;2.63;;
39022;SDS011;25908;51.984;5.928;2022-07-29T08:50:58;9.07;;;3.28;;
39022;SDS011;25908;51.984;5.928;2022-07-29T08:53:25;6.07;;;2.70;;
39022;SDS011;25908;51.984;5.928;2022-07-29T08:55:52;8.13;;;3.83;;
39022;SDS011;25908;51.984;5.928;2022-07-29T08:58:18;5.40;;;2.33;;
39022;SDS011;25908;51.984;5.928;2022-07-29T09:00:46;6.32;;;3.22;;
39022;SDS011;25908;51.984;5.928;2022-07-29T09:03:18;4.03;;;2.10;;
39022;SDS011;25908;51.984;5.928;2022-07-29T09:05:45;5.90;;;2.15;;
39022;SDS011;25908;51.984;5.928;2022-07-29T09:08:11;5.80;;;2.50;;
39022;SDS011;25908;51.984;5.928;2022-07-29T09:10:38;5.28;;;2.40;;
39022;SDS011;25908;51.984;5.928;2022-07-29T09:13:04;8.45;;;2.35;;
39022;SDS011;25908;51.984;5.928;2022-07-29T09:15:30;3.95;;;2.33;;
39022;SDS011;25908;51.984;5.928;2022-07-29T09:17:55;5.93;;;2.47;;
39022;SDS011;25908;51.984;5.928;2022-07-29T09:20:23;5.57;;;2.20;;
39022;SDS011;25908;51.984;5.928;2022-07-29T09:22:50;6.10;;;2.08;;
39022;SDS011;25908;51.984;5.928;2022-07-29T09:25:37;4.97;;;2.63;;
39022;SDS011;25908;51.984;5.928;2022-07-29T09:28:06;6.07;;;2.60;;
39022;SDS011;25908;51.984;5.928;2022-07-29T09:30:38;6.25;;;2.63;;
39022;SDS011;25908;51.984;5.928;2022-07-29T09:33:20;3.85;;;2.40;;
39022;SDS011;25908;51.984;5.928;2022-07-29T09:35:57;6.10;;;3.03;;
39022;SDS011;25908;51.984;5.928;2022-07-29T09:38:28;4.05;;;2.58;;
39022;SDS011;25908;51.984;5.928;2022-07-29T09:40:57;4.35;;;2.33;;
39022;SDS011;25908;51.984;5.928;2022-07-29T09:43:24;6.07;;;2.53;;
39022;SDS011;25908;51.984;5.928;2022-07-29T09:45:49;6.78;;;2.65;;
39022;SDS011;25908;51.984;5.928;2022-07-29T09:48:16;5.57;;;2.45;;
39022;SDS011;25908;51.984;5.928;2022-07-29T09:50:44;6.45;;;2.42;;
39022;SDS011;25908;51.984;5.928;2022-07-29T09:53:11;6.28;;;2.53;;
39022;SDS011;25908;51.984;5.928;2022-07-29T09:55:54;4.95;;;2.33;;
39022;SDS011;25908;51.984;5.928;2022-07-29T09:58:20;5.00;;;2.58;;
39022;SDS011;25908;51.984;5.928;2022-07-29T10:00:48;4.97;;;2.70;;
39022;SDS011;25908;51.984;5.928;2022-07-29T10:03:15;5.28;;;2.38;;
39022;SDS011;25908;51.984;5.928;2022-07-29T10:05:42;5.15;;;2.97;;
39022;SDS011;25908;51.984;5.928;2022-07-29T10:08:08;6.47;;;3.28;;
39022;SDS011;25908;51.984;5.928;2022-07-29T10:10:36;4.82;;;2.90;;
39022;SDS011;25908;51.984;5.928;2022-07-29T10:13:04;6.18;;;2.60;;
39022;SDS011;25908;51.984;5.928;2022-07-29T10:15:35;5.28;;;2.70;;
39022;SDS011;25908;51.984;5.928;2022-07-29T10:18:04;4.88;;;2.45;;
39022;SDS011;25908;51.984;5.928;2022-07-29T10:20:30;6.53;;;2.65;;
39022;SDS011;25908;51.984;5.928;2022-07-29T10:22:56;4.68;;;2.58;;
39022;SDS011;25908;51.984;5.928;2022-07-29T10:25:22;4.68;;;2.55;;
39022;SDS011;25908;51.984;5.928;2022-07-29T10:27:48;8.00;;;2.47;;
39022;SDS011;25908;51.984;5.928;2022-07-29T10:30:16;8.90;;;2.45;;
39022;SDS011;25908;51.984;5.928;2022-07-29T10:38:54;5.32;;;2.40;;
39022;SDS011;25908;51.984;5.928;2022-07-29T10:44:21;5.43;;;2.50;;
39022;SDS011;25908;51.984;5.928;2022-07-29T10:46:48;8.00;;;2.42;;
39022;SDS011;25908;51.984;5.928;2022-07-29T10:49:19;4.72;;;2.13;;
39022;SDS011;25908;51.984;5.928;2022-07-29T10:51:56;3.42;;;2.13;;
39022;SDS011;25908;51.984;5.928;2022-07-29T10:57:10;4.97;;;2.28;;
39022;SDS011;25908;51.984;5.928;2022-07-29T10:59:36;4.13;;;2.00;;
39022;SDS011;25908;51.984;5.928;2022-07-29T11:02:02;5.82;;;2.13;;
39022;SDS011;25908;51.984;5.928;2022-07-29T11:07:16;5.30;;;2.58;;
39022;SDS011;25908;51.984;5.928;2022-07-29T11:09:41;4.38;;;2.42;;
39022;SDS011;25908;51.984;5.928;2022-07-29T11:15:01;5.15;;;2.58;;
39022;SDS011;25908;51.984;5.928;2022-07-29T11:17:27;7.07;;;2.75;;
39022;SDS011;25908;51.984;5.928;2022-07-29T11:22:56;6.22;;;2.40;;
39022;SDS011;25908;51.984;5.928;2022-07-29T11:25:22;6.28;;;2.15;;
39022;SDS011;25908;51.984;5.928;2022-07-29T11:27:48;6.97;;;2.03;;
39022;SDS011;25908;51.984;5.928;2022-07-29T11:30:14;4.80;;;2.05;;
39022;SDS011;25908;51.984;5.928;2022-07-29T11:32:44;9.35;;;2.00;;
39022;SDS011;25908;51.984;5.928;2022-07-29T11:35:22;4.40;;;1.90;;
39022;SDS011;25908;51.984;5.928;2022-07-29T11:44:15;4.60;;;1.85;;
39022;SDS011;25908;51.984;5.928;2022-07-29T11:49:19;6.13;;;2.60;;
39022;SDS011;25908;51.984;5.928;2022-07-29T11:51:49;5.03;;;1.95;;
39022;SDS011;25908;51.984;5.928;2022-07-29T11:54:16;3.38;;;2.00;;
39022;SDS011;25908;51.984;5.928;2022-07-29T11:56:48;5.70;;;1.58;;
39022;SDS011;25908;51.984;5.928;2022-07-29T11:59:15;6.18;;;1.85;;
39022;SDS011;25908;51.984;5.928;2022-07-29T12:01:57;6.10;;;1.50;;
39022;SDS011;25908;51.984;5.928;2022-07-29T12:04:24;4.22;;;1.40;;
39022;SDS011;25908;51.984;5.928;2022-07-29T12:06:51;7.82;;;1.80;;
39022;SDS011;25908;51.984;5.928;2022-07-29T12:09:18;3.10;;;1.30;;
39022;SDS011;25908;51.984;5.928;2022-07-29T12:11:44;5.07;;;1.70;;
39022;SDS011;25908;51.984;5.928;2022-07-29T12:14:29;3.72;;;1.30;;
39022;SDS011;25908;51.984;5.928;2022-07-29T12:16:56;3.35;;;1.52;;
39022;SDS011;25908;51.984;5.928;2022-07-29T12:19:22;6.47;;;1.55;;
39022;SDS011;25908;51.984;5.928;2022-07-29T12:21:49;3.53;;;1.33;;
39022;SDS011;25908;51.984;5.928;2022-07-29T12:24:16;3.35;;;1.77;;
39022;SDS011;25908;51.984;5.928;2022-07-29T12:26:49;4.38;;;1.40;;
39022;SDS011;25908;51.984;5.928;2022-07-29T12:29:16;3.00;;;1.20;;
39022;SDS011;25908;51.984;5.928;2022-07-29T12:31:42;3.13;;;1.40;;
39022;SDS011;25908;51.984;5.928;2022-07-29T12:34:09;5.90;;;1.50;;
39022;SDS011;25908;51.984;5.928;2022-07-29T12:36:43;3.90;;;1.30;;
39022;SDS011;25908;51.984;5.928;2022-07-29T12:39:09;2.80;;;1.33;;
39022;SDS011;25908;51.984;5.928;2022-07-29T12:41:35;4.85;;;1.60;;
39022;SDS011;25908;51.984;5.928;2022-07-29T12:44:01;4.43;;;1.90;;
39022;SDS011;25908;51.984;5.928;2022-07-29T12:46:27;4.10;;;1.38;;
39022;SDS011;25908;51.984;5.928;2022-07-29T12:48:53;3.83;;;1.70;;
39022;SDS011;25908;51.984;5.928;2022-07-29T12:51:41;3.25;;;1.70;;
39022;SDS011;25908;51.984;5.928;2022-07-29T12:54:12;3.92;;;1.70;;
39022;SDS011;25908;51.984;5.928;2022-07-29T12:56:39;2.50;;;1.40;;
39022;SDS011;25908;51.984;5.928;2022-07-29T12:59:16;2.45;;;1.30;;
39022;SDS011;25908;51.984;5.928;2022-07-29T13:01:43;2.80;;;1.20;;
39022;SDS011;25908;51.984;5.928;2022-07-29T13:04:09;3.42;;;1.65;;
39022;SDS011;25908;51.984;5.928;2022-07-29T13:06:36;3.50;;;1.27;;
39022;SDS011;25908;51.984;5.928;2022-07-29T13:11:32;5.30;;;1.70;;
39022;SDS011;25908;51.984;5.928;2022-07-29T13:13:59;2.67;;;1.48;;
39022;SDS011;25908;51.984;5.928;2022-07-29T13:16:25;6.13;;;1.70;;
39022;SDS011;25908;51.984;5.928;2022-07-29T13:19:02;3.45;;;1.52;;
39022;SDS011;25908;51.984;5.928;2022-07-29T13:21:29;7.40;;;2.20;;
39022;SDS011;25908;51.984;5.928;2022-07-29T13:23:55;2.97;;;1.27;;
39022;SDS011;25908;51.984;5.928;2022-07-29T13:26:20;3.25;;;1.45;;
39022;SDS011;25908;51.984;5.928;2022-07-29T13:28:46;3.72;;;1.55;;
39022;SDS011;25908;51.984;5.928;2022-07-29T13:31:11;4.38;;;1.50;;
39022;SDS011;25908;51.984;5.928;2022-07-29T13:33:37;3.03;;;1.48;;
39022;SDS011;25908;51.984;5.928;2022-07-29T13:36:03;4.05;;;1.55;;
39022;SDS011;25908;51.984;5.928;2022-07-29T13:38:28;2.63;;;1.25;;
39022;SDS011;25908;51.984;5.928;2022-07-29T13:40:54;2.25;;;1.30;;
39022;SDS011;25908;51.984;5.928;2022-07-29T13:43:19;4.50;;;1.45;;
39022;SDS011;25908;51.984;5.928;2022-07-29T13:45:45;2.95;;;1.30;;
39022;SDS011;25908;51.984;5.928;2022-07-29T13:48:10;3.03;;;1.10;;
39022;SDS011;25908;51.984;5.928;2022-07-29T13:50:36;2.13;;;1.20;;
39022;SDS011;25908;51.984;5.928;2022-07-29T13:53:01;2.65;;;1.27;;
39022;SDS011;25908;51.984;5.928;2022-07-29T13:55:27;2.58;;;1.40;;
39022;SDS011;25908;51.984;5.928;2022-07-29T13:57:52;2.53;;;1.25;;
39022;SDS011;25908;51.984;5.928;2022-07-29T14:00:18;3.35;;;1.20;;
39022;SDS011;25908;51.984;5.928;2022-07-29T14:02:44;4.63;;;1.48;;
39022;SDS011;25908;51.984;5.928;2022-07-29T14:05:09;3.08;;;1.58;;
39022;SDS011;25908;51.984;5.928;2022-07-29T14:07:38;5.00;;;2.20;;
39022;SDS011;25908;51.984;5.928;2022-07-29T14:10:04;2.80;;;1.30;;
39022;SDS011;25908;51.984;5.928;2022-07-29T14:12:30;5.00;;;1.55;;
39022;SDS011;25908;51.984;5.928;2022-07-29T14:14:56;1.88;;;1.30;;
39022;SDS011;25908;51.984;5.928;2022-07-29T14:17:22;3.28;;;1.45;;
39022;SDS011;25908;51.984;5.928;2022-07-29T14:19:48;3.15;;;1.58;;
39022;SDS011;25908;51.984;5.928;2022-07-29T14:22:13;4.70;;;1.58;;
39022;SDS011;25908;51.984;5.928;2022-07-29T14:24:39;3.75;;;1.55;;
39022;SDS011;25908;51.984;5.928;2022-07-29T14:27:05;5.10;;;1.40;;
39022;SDS011;25908;51.984;5.928;2022-07-29T14:29:32;3.38;;;1.20;;
39022;SDS011;25908;51.984;5.928;2022-07-29T14:31:58;2.47;;;1.23;;
39022;SDS011;25908;51.984;5.928;2022-07-29T14:34:24;4.32;;;1.40;;
39022;SDS011;25908;51.984;5.928;2022-07-29T14:36:49;2.97;;;1.55;;
39022;SDS011;25908;51.984;5.928;2022-07-29T14:39:15;5.07;;;1.60;;
39022;SDS011;25908;51.984;5.928;2022-07-29T14:41:41;2.08;;;1.30;;
39022;SDS011;25908;51.984;5.928;2022-07-29T14:44:07;3.10;;;1.30;;
39022;SDS011;25908;51.984;5.928;2022-07-29T14:46:33;3.08;;;1.30;;
39022;SDS011;25908;51.984;5.928;2022-07-29T14:49:00;2.63;;;1.30;;
39022;SDS011;25908;51.984;5.928;2022-07-29T14:51:26;3.63;;;1.60;;
39022;SDS011;25908;51.984;5.928;2022-07-29T14:53:52;3.88;;;1.30;;
39022;SDS011;25908;51.984;5.928;2022-07-29T14:56:17;3.08;;;1.30;;
39022;SDS011;25908;51.984;5.928;2022-07-29T14:58:43;3.70;;;1.30;;
39022;SDS011;25908;51.984;5.928;2022-07-29T15:01:08;5.97;;;2.20;;
39022;SDS011;25908;51.984;5.928;2022-07-29T15:03:34;4.93;;;1.40;;
39022;SDS011;25908;51.984;5.928;2022-07-29T15:05:59;3.20;;;1.27;;
39022;SDS011;25908;51.984;5.928;2022-07-29T15:08:25;3.55;;;1.52;;
39022;SDS011;25908;51.984;5.928;2022-07-29T15:10:53;3.35;;;1.42;;
39022;SDS011;25908;51.984;5.928;2022-07-29T15:13:18;6.90;;;1.52;;
39022;SDS011;25908;51.984;5.928;2022-07-29T15:15:44;3.65;;;1.48;;
39022;SDS011;25908;51.984;5.928;2022-07-29T15:18:10;3.53;;;1.40;;
39022;SDS011;25908;51.984;5.928;2022-07-29T15:20:36;4.20;;;1.30;;
39022;SDS011;25908;51.984;5.928;2022-07-29T15:23:02;3.88;;;1.70;;
39022;SDS011;25908;51.984;5.928;2022-07-29T15:25:28;5.55;;;1.70;;
39022;SDS011;25908;51.984;5.928;2022-07-29T15:27:53;5.30;;;1.52;;
39022;SDS011;25908;51.984;5.928;2022-07-29T15:30:19;3.03;;;1.45;;